createdAt,value
2022-10-16T00:00:24.925Z,3.59
2022-10-16T00:05:27.697Z,3.49
2022-10-16T00:10:30.413Z,3.26
2022-10-16T00:15:37.941Z,3.11
2022-10-16T00:20:40.812Z,3.11
2022-10-16T00:26:06.612Z,3.14
2022-10-16T00:31:11.381Z,3.07
2022-10-16T00:36:17.723Z,3.10
2022-10-16T00:41:20.486Z,3.17
2022-10-16T00:46:32.388Z,3.26
2022-10-16T00:51:40.452Z,3.16
2022-10-16T00:56:44.625Z,2.95
2022-10-16T01:01:47.386Z,2.94
2022-10-16T01:07:04.761Z,2.91
2022-10-16T01:12:15.401Z,2.88
2022-10-16T01:17:44.061Z,2.77
2022-10-16T01:22:55.465Z,2.77
2022-10-16T01:28:00.437Z,2.69
2022-10-16T01:33:14.817Z,2.61
2022-10-16T01:38:23.429Z,2.69
2022-10-16T01:43:31.585Z,2.67
2022-10-16T01:48:35.492Z,2.66
2022-10-16T01:53:39.977Z,2.53
2022-10-16T01:58:48.636Z,2.58
2022-10-16T02:03:55.073Z,2.40
2022-10-16T02:08:57.673Z,2.56
2022-10-16T02:14:04.898Z,2.61
2022-10-16T02:19:08.894Z,2.61
2022-10-16T02:24:14.474Z,2.65
2022-10-16T02:29:22.584Z,2.58
2022-10-16T02:34:27.383Z,2.53
2022-10-16T02:39:30.911Z,2.38
2022-10-16T02:44:33.524Z,2.32
2022-10-16T02:49:36.046Z,2.37
2022-10-16T02:54:38.618Z,2.33
2022-10-16T02:59:41.208Z,2.27
2022-10-16T03:04:43.761Z,2.28
2022-10-16T03:09:46.297Z,2.05
2022-10-16T03:14:49.430Z,2.13
2022-10-16T03:19:52.185Z,2.22
2022-10-16T03:24:54.758Z,2.13
2022-10-16T03:29:57.310Z,2.07
2022-10-16T03:34:59.918Z,2.00
2022-10-16T03:40:02.464Z,1.96
2022-10-16T03:45:06.644Z,2.01
2022-10-16T03:50:09.820Z,1.97
2022-10-16T03:55:12.584Z,1.96
2022-10-16T04:00:15.284Z,2.00
2022-10-16T04:05:17.995Z,2.00
2022-10-16T04:10:20.637Z,2.06
2022-10-16T04:15:24.443Z,1.90
2022-10-16T04:20:27.276Z,2.10
2022-10-16T04:25:30.043Z,2.16
2022-10-16T04:30:34.582Z,2.30
2022-10-16T04:35:37.129Z,2.31
2022-10-16T04:40:39.711Z,2.32
2022-10-16T04:45:42.405Z,2.52
2022-10-16T04:50:45.058Z,2.63
2022-10-16T04:55:47.732Z,2.74
2022-10-16T05:00:50.911Z,2.92
2022-10-16T05:05:53.854Z,3.11
2022-10-16T05:10:56.401Z,3.40
2022-10-16T05:15:58.991Z,3.40
2022-10-16T05:21:01.659Z,3.73
2022-10-16T05:26:04.496Z,3.92
2022-10-16T05:31:08.272Z,4.09
2022-10-16T05:36:12.087Z,4.19
2022-10-16T05:41:15.234Z,4.31
2022-10-16T05:46:18.059Z,4.53
2022-10-16T05:51:20.610Z,4.46
2022-10-16T05:56:23.228Z,4.79
2022-10-16T06:01:26.228Z,4.91
2022-10-16T06:06:30.652Z,5.17
2022-10-16T06:11:34.465Z,5.29
2022-10-16T06:16:38.675Z,5.56
2022-10-16T06:21:41.254Z,5.78
2022-10-16T06:26:44.108Z,5.85
2022-10-16T06:31:46.686Z,6.16
2022-10-16T06:36:49.233Z,6.19
2022-10-16T06:41:52.097Z,6.43
2022-10-16T06:46:54.932Z,6.21
2022-10-16T06:51:57.614Z,6.67
2022-10-16T06:57:01.136Z,6.88
2022-10-16T07:02:03.727Z,7.00
2022-10-16T07:07:08.659Z,7.29
2022-10-16T07:12:12.153Z,7.43
2022-10-16T07:17:14.978Z,7.61
2022-10-16T07:22:17.647Z,7.71
2022-10-16T07:27:23.268Z,7.92
2022-10-16T07:32:27.062Z,7.98
2022-10-16T07:37:29.866Z,8.11
2022-10-16T07:42:32.652Z,8.19
2022-10-16T07:47:35.237Z,8.29
2022-10-16T07:52:37.772Z,8.49
2022-10-16T07:57:40.340Z,8.64
2022-10-16T08:02:42.949Z,8.59
2022-10-16T08:07:50.768Z,8.66
2022-10-16T08:12:54.041Z,8.97
2022-10-16T08:18:04.513Z,9.01
2022-10-16T08:23:07.966Z,9.10
2022-10-16T08:28:11.951Z,9.37
2022-10-16T08:33:14.918Z,9.44
2022-10-16T08:38:17.644Z,9.53
2022-10-16T08:44:01.774Z,9.66
2022-10-16T08:49:08.020Z,9.83
2022-10-16T08:54:27.865Z,9.99
2022-10-16T08:59:30.494Z,9.95
2022-10-16T09:04:56.776Z,10.12
2022-10-16T09:10:05.255Z,10.20
2022-10-16T09:15:16.729Z,10.33
2022-10-16T09:20:40.394Z,10.25
2022-10-16T09:25:46.651Z,10.45
2022-10-16T09:30:50.841Z,10.33
2022-10-16T09:35:56.927Z,10.39
2022-10-16T09:41:03.492Z,10.32
2022-10-16T09:46:09.862Z,10.68
2022-10-16T09:51:22.926Z,10.86
2022-10-16T09:56:31.897Z,10.93
2022-10-16T10:01:45.553Z,10.97
2022-10-16T10:06:59.241Z,11.16
2022-10-16T10:17:15.050Z,11.00
2022-10-16T10:22:43.232Z,11.02
2022-10-16T10:28:28.289Z,10.94
2022-10-16T10:33:39.918Z,11.11
2022-10-16T10:38:57.706Z,11.07
2022-10-16T10:44:15.503Z,11.03
2022-10-16T10:49:46.673Z,10.89
2022-10-16T10:55:03.133Z,11.13
2022-10-16T11:00:25.964Z,10.92
2022-10-16T11:05:32.254Z,11.11
2022-10-16T11:10:47.913Z,11.25
2022-10-16T11:15:54.921Z,11.04
2022-10-16T11:21:03.731Z,11.26
2022-10-16T11:26:16.517Z,11.41
2022-10-16T11:31:28.017Z,11.55
2022-10-16T11:36:42.987Z,11.53
2022-10-16T11:41:54.488Z,11.48
2022-10-16T11:47:33.793Z,11.53
2022-10-16T11:52:37.613Z,11.52
2022-10-16T11:57:46.868Z,11.57
2022-10-16T12:02:55.276Z,11.41
2022-10-16T12:08:08.717Z,11.38
2022-10-16T12:13:31.356Z,11.44
2022-10-16T12:18:34.022Z,11.27
2022-10-16T12:23:48.168Z,11.16
2022-10-16T12:28:52.825Z,11.27
2022-10-16T12:34:04.372Z,11.19
2022-10-16T12:39:07.012Z,11.08
2022-10-16T12:44:35.545Z,11.17
2022-10-16T12:49:42.215Z,11.04
2022-10-16T12:54:44.866Z,11.07
2022-10-16T12:59:52.984Z,10.98
2022-10-16T13:05:17.197Z,11.01
2022-10-16T13:10:24.620Z,10.90
2022-10-16T13:15:36.855Z,10.78
2022-10-16T13:20:45.420Z,10.78
2022-10-16T13:26:27.931Z,10.77
2022-10-16T13:31:32.869Z,10.59
2022-10-16T13:36:44.319Z,10.58
2022-10-16T13:41:46.943Z,10.48
2022-10-16T13:47:01.477Z,10.28
2022-10-16T13:52:03.996Z,10.26
2022-10-16T13:57:26.407Z,10.13
2022-10-16T14:02:38.389Z,9.77
2022-10-16T14:07:41.800Z,9.77
2022-10-16T14:12:44.402Z,9.66
2022-10-16T14:17:51.690Z,9.47
2022-10-16T14:23:23.296Z,9.49
2022-10-16T14:28:25.877Z,9.16
2022-10-16T14:33:31.506Z,9.21
2022-10-16T14:38:35.000Z,9.05
2022-10-16T14:43:38.688Z,9.03
2022-10-16T14:48:51.377Z,8.93
2022-10-16T14:53:57.805Z,8.88
2022-10-16T14:59:03.598Z,8.79
2022-10-16T15:04:06.234Z,8.70
2022-10-16T15:09:09.069Z,8.45
2022-10-16T15:19:17.952Z,8.46
2022-10-16T15:24:21.613Z,8.40
2022-10-16T15:29:24.409Z,8.23
2022-10-16T15:34:26.991Z,8.21
2022-10-16T15:39:29.621Z,8.11
2022-10-16T15:44:32.164Z,7.94
2022-10-16T15:49:35.313Z,8.12
2022-10-16T15:54:37.848Z,8.03
2022-10-16T15:59:40.426Z,7.98
2022-10-16T16:04:44.304Z,7.89
2022-10-16T16:09:47.469Z,7.89
2022-10-16T16:14:50.230Z,7.90
2022-10-16T16:19:53.012Z,7.65
2022-10-16T16:24:55.641Z,7.70
2022-10-16T16:29:58.322Z,7.72
2022-10-16T16:35:00.954Z,7.67
2022-10-16T16:40:03.704Z,7.48
2022-10-16T16:45:07.067Z,7.64
2022-10-16T16:50:09.898Z,7.47
2022-10-16T16:55:12.564Z,7.51
2022-10-16T17:00:15.602Z,7.46
2022-10-16T17:05:20.025Z,7.43
2022-10-16T17:10:22.769Z,7.36
2022-10-16T17:15:25.357Z,7.27
2022-10-16T17:20:27.851Z,7.25
2022-10-16T17:25:31.988Z,7.23
2022-10-16T17:30:37.345Z,7.21
2022-10-16T17:35:44.885Z,7.14
2022-10-16T17:40:47.634Z,7.05
2022-10-16T17:45:50.449Z,7.11
2022-10-16T17:50:53.017Z,6.89
2022-10-16T17:55:59.447Z,6.82
2022-10-16T18:01:02.959Z,6.82
2022-10-16T18:06:05.717Z,6.78
2022-10-16T18:11:09.912Z,6.80
2022-10-16T18:16:15.065Z,6.69
2022-10-16T18:21:20.211Z,6.59
2022-10-16T18:26:23.633Z,6.61
2022-10-16T18:31:39.071Z,6.61
2022-10-16T18:36:45.029Z,6.38
2022-10-16T18:41:51.529Z,6.55
2022-10-16T18:46:59.264Z,6.56
2022-10-16T18:52:03.377Z,6.47
2022-10-16T18:57:06.334Z,6.57
2022-10-16T19:02:09.580Z,6.49
2022-10-16T19:07:12.193Z,6.59
2022-10-16T19:12:14.763Z,6.53
2022-10-16T19:17:17.311Z,6.58
2022-10-16T19:22:31.226Z,6.58
2022-10-16T19:27:33.928Z,6.41
2022-10-16T19:32:36.693Z,6.52
2022-10-16T19:37:39.399Z,6.48
2022-10-16T19:42:45.146Z,6.32
2022-10-16T19:47:47.813Z,6.48
2022-10-16T19:52:50.450Z,6.37
2022-10-16T19:57:52.980Z,6.18
2022-10-16T20:02:55.553Z,6.21
2022-10-16T20:07:58.140Z,6.18
2022-10-16T20:13:00.701Z,6.09
2022-10-16T20:18:03.230Z,6.06
2022-10-16T20:23:06.924Z,6.05
2022-10-16T20:28:12.464Z,5.86
2022-10-16T20:33:16.158Z,5.82
2022-10-16T20:38:19.147Z,5.71
2022-10-16T20:43:21.796Z,5.71
2022-10-16T20:48:24.382Z,5.75
2022-10-16T20:53:27.230Z,5.76
2022-10-16T20:58:29.823Z,5.76
2022-10-16T21:03:32.356Z,5.70
2022-10-16T21:08:36.665Z,5.65
2022-10-16T21:13:39.889Z,5.60
2022-10-16T21:18:44.704Z,5.38
2022-10-16T21:23:48.657Z,5.34
2022-10-16T21:28:51.261Z,5.34
2022-10-16T21:33:55.413Z,5.35
2022-10-16T21:39:08.177Z,5.49
2022-10-16T21:44:11.121Z,5.49
2022-10-16T21:49:19.496Z,5.54
2022-10-16T21:54:24.103Z,5.61
2022-10-16T21:59:26.680Z,5.38
2022-10-16T22:04:29.205Z,5.44
2022-10-16T22:09:31.880Z,5.27
2022-10-16T22:14:34.520Z,5.27
2022-10-16T22:19:37.183Z,5.18
2022-10-16T22:24:39.705Z,5.12
2022-10-16T22:29:42.307Z,5.13
2022-10-16T22:34:45.205Z,5.18
2022-10-16T22:39:47.737Z,5.13
2022-10-16T22:44:50.227Z,5.05
2022-10-16T22:49:53.048Z,5.03
2022-10-16T22:54:55.608Z,5.00
2022-10-16T22:59:58.170Z,5.06
2022-10-16T23:05:00.777Z,5.10
2022-10-16T23:10:08.508Z,5.12
2022-10-16T23:15:11.083Z,5.19
2022-10-16T23:20:13.608Z,5.11
2022-10-16T23:25:16.232Z,5.12
2022-10-16T23:30:18.766Z,5.18
2022-10-16T23:35:21.451Z,5.26
2022-10-16T23:40:24.391Z,5.30
2022-10-16T23:45:26.978Z,5.21
2022-10-16T23:50:30.524Z,5.29
